createdAt,value
2022-10-05T00:00:05.283Z,7.10
2022-10-05T00:03:12.053Z,6.53
2022-10-05T00:06:15.462Z,4.97
2022-10-05T00:09:20.771Z,4.60
2022-10-05T00:12:26.896Z,6.57
2022-10-05T00:15:30.503Z,5.10
2022-10-05T00:18:33.952Z,6.57
2022-10-05T00:21:37.438Z,5.73
2022-10-05T00:24:40.444Z,5.53
2022-10-05T00:27:47.604Z,5.83
2022-10-05T00:30:50.571Z,6.43
2022-10-05T00:33:54.912Z,7.33
2022-10-05T00:36:57.858Z,8.50
2022-10-05T00:40:00.851Z,7.90
2022-10-05T00:43:28.955Z,7.93
2022-10-05T00:46:40.219Z,8.57
2022-10-05T00:50:03.618Z,8.03
2022-10-05T00:53:18.282Z,7.10
2022-10-05T00:56:35.252Z,6.80
2022-10-05T00:59:49.964Z,8.60
2022-10-05T01:03:00.081Z,8.50
2022-10-05T01:06:12.889Z,5.20
2022-10-05T01:09:23.557Z,7.87
2022-10-05T01:12:33.073Z,6.50
2022-10-05T01:15:46.827Z,7.87
2022-10-05T01:18:54.557Z,7.77
2022-10-05T01:22:05.345Z,8.40
2022-10-05T01:25:21.865Z,9.87
2022-10-05T01:28:30.467Z,6.80
2022-10-05T01:31:42.533Z,7.80
2022-10-05T01:34:51.846Z,6.40
2022-10-05T01:38:03.753Z,7.37
2022-10-05T01:41:16.726Z,6.13
2022-10-05T01:44:27.054Z,9.77
2022-10-05T01:47:44.363Z,6.27
2022-10-05T01:50:58.699Z,5.83
2022-10-05T01:54:08.826Z,5.73
2022-10-05T01:57:20.874Z,9.23
2022-10-05T02:00:25.442Z,5.90
2022-10-05T02:03:32.249Z,6.50
2022-10-05T02:06:40.921Z,6.37
2022-10-05T02:09:49.434Z,4.37
2022-10-05T02:12:56.866Z,5.23
2022-10-05T02:16:03.301Z,5.77
2022-10-05T02:19:15.542Z,6.83
2022-10-05T02:22:24.156Z,9.70
2022-10-05T02:25:31.204Z,7.80
2022-10-05T02:28:39.195Z,6.37
2022-10-05T02:31:48.810Z,6.87
2022-10-05T02:34:52.221Z,8.23
2022-10-05T02:38:06.275Z,5.47
2022-10-05T02:41:17.662Z,8.03
2022-10-05T02:44:25.884Z,7.03
2022-10-05T02:47:36.155Z,6.83
2022-10-05T02:50:49.188Z,7.97
2022-10-05T02:54:03.518Z,8.50
2022-10-05T02:57:11.460Z,10.40
2022-10-05T03:00:16.976Z,7.30
2022-10-05T03:03:29.048Z,6.93
2022-10-05T03:06:36.979Z,7.67
2022-10-05T03:09:46.208Z,6.13
2022-10-05T03:12:55.049Z,6.63
2022-10-05T03:16:16.944Z,6.50
2022-10-05T03:19:40.708Z,4.40
2022-10-05T03:22:50.053Z,7.30
2022-10-05T03:26:11.427Z,7.20
2022-10-05T03:29:27.376Z,8.03
2022-10-05T03:32:40.334Z,6.00
2022-10-05T03:35:54.140Z,6.40
2022-10-05T03:39:04.104Z,5.97
2022-10-05T03:42:13.059Z,8.03
2022-10-05T03:45:25.440Z,7.57
2022-10-05T03:48:33.507Z,5.10
2022-10-05T03:51:41.595Z,7.70
2022-10-05T03:54:48.143Z,6.30
2022-10-05T03:57:55.442Z,4.83
2022-10-05T04:01:03.223Z,7.23
2022-10-05T04:04:12.360Z,6.37
2022-10-05T04:07:29.437Z,8.53
2022-10-05T04:10:40.652Z,6.50
2022-10-05T04:13:48.656Z,6.63
2022-10-05T04:16:55.943Z,6.93
2022-10-05T04:20:04.067Z,6.43
2022-10-05T04:23:18.457Z,5.80
2022-10-05T04:26:28.231Z,6.87
2022-10-05T04:29:37.247Z,11.17
2022-10-05T04:32:43.634Z,5.47
2022-10-05T04:36:10.191Z,7.53
2022-10-05T04:39:23.061Z,6.30
2022-10-05T04:42:34.747Z,10.80
2022-10-05T04:45:53.555Z,7.57
2022-10-05T04:49:21.026Z,6.83
2022-10-05T04:52:31.346Z,6.37
2022-10-05T04:55:42.796Z,7.30
2022-10-05T04:59:01.732Z,6.37
2022-10-05T05:02:13.545Z,10.00
2022-10-05T05:05:28.667Z,6.63
2022-10-05T05:08:48.662Z,8.17
2022-10-05T05:12:09.082Z,6.67
2022-10-05T05:15:27.550Z,7.43
2022-10-05T05:19:21.297Z,9.63
2022-10-05T05:22:30.182Z,6.53
2022-10-05T05:25:42.953Z,6.53
2022-10-05T05:28:55.583Z,8.97
2022-10-05T05:32:08.545Z,6.17
2022-10-05T05:35:41.593Z,8.23
2022-10-05T05:38:53.299Z,6.77
2022-10-05T05:42:01.900Z,6.67
2022-10-05T05:45:13.330Z,9.60
2022-10-05T05:48:21.789Z,9.37
2022-10-05T05:51:29.702Z,9.50
2022-10-05T05:54:37.635Z,8.30
2022-10-05T05:57:45.458Z,8.27
2022-10-05T06:00:56.038Z,10.20
2022-10-05T06:04:02.856Z,10.00
2022-10-05T06:07:06.871Z,11.57
2022-10-05T06:10:17.989Z,10.90
2022-10-05T06:13:25.417Z,8.57
2022-10-05T06:16:35.992Z,8.80
2022-10-05T06:19:41.084Z,7.87
2022-10-05T06:22:46.850Z,8.00
2022-10-05T06:26:10.851Z,10.50
2022-10-05T06:29:21.177Z,8.07
2022-10-05T06:32:31.096Z,8.33
2022-10-05T06:35:46.695Z,9.17
2022-10-05T06:39:06.193Z,9.03
2022-10-05T06:42:26.799Z,10.23
2022-10-05T06:45:39.205Z,8.80
2022-10-05T06:49:19.271Z,8.63
2022-10-05T06:52:30.228Z,13.57
2022-10-05T06:55:44.128Z,12.13
2022-10-05T06:58:52.377Z,8.90
2022-10-05T07:02:02.898Z,12.37
2022-10-05T07:05:48.212Z,9.23
2022-10-05T07:09:04.946Z,8.40
2022-10-05T07:12:31.243Z,10.77
2022-10-05T07:15:42.957Z,8.27
2022-10-05T07:19:00.923Z,9.53
2022-10-05T07:22:22.129Z,8.37
2022-10-05T07:25:30.082Z,8.67
2022-10-05T07:28:44.763Z,7.47
2022-10-05T07:31:57.442Z,7.47
2022-10-05T07:35:09.108Z,6.93
2022-10-05T07:38:21.253Z,10.90
2022-10-05T07:41:32.983Z,6.40
2022-10-05T07:44:41.488Z,10.57
2022-10-05T07:47:50.995Z,7.57
2022-10-05T07:51:00.327Z,8.70
2022-10-05T07:54:15.899Z,7.70
2022-10-05T07:57:28.556Z,7.77
2022-10-05T08:00:48.243Z,6.87
2022-10-05T08:03:55.081Z,7.20
2022-10-05T08:07:00.596Z,7.57
2022-10-05T08:10:19.128Z,9.97
2022-10-05T08:13:30.668Z,6.90
2022-10-05T08:16:38.429Z,6.47
2022-10-05T08:19:46.859Z,8.27
2022-10-05T08:22:55.972Z,7.43
2022-10-05T08:26:12.516Z,8.97
2022-10-05T08:29:20.950Z,9.80
2022-10-05T08:32:26.429Z,8.20
2022-10-05T08:35:35.803Z,6.40
2022-10-05T08:38:39.613Z,9.50
2022-10-05T08:42:25.022Z,10.67
2022-10-05T08:46:00.524Z,10.50
2022-10-05T08:49:21.883Z,7.07
2022-10-05T08:52:32.261Z,10.53
2022-10-05T08:55:42.128Z,10.43
2022-10-05T08:59:05.087Z,9.57
2022-10-05T09:02:20.159Z,10.63
2022-10-05T09:05:45.579Z,9.17
2022-10-05T09:08:59.382Z,9.37
2022-10-05T09:12:24.202Z,6.90
2022-10-05T09:15:51.992Z,9.17
2022-10-05T09:19:22.744Z,8.33
2022-10-05T09:22:41.581Z,8.90
2022-10-05T09:25:58.672Z,7.23
2022-10-05T09:29:28.955Z,8.67
2022-10-05T09:33:14.490Z,7.37
2022-10-05T09:36:50.850Z,7.17
2022-10-05T09:40:28.560Z,6.53
2022-10-05T09:44:05.624Z,7.93
2022-10-05T09:47:48.884Z,7.13
2022-10-05T09:51:32.799Z,6.60
2022-10-05T09:55:14.070Z,6.57
2022-10-05T09:58:58.055Z,7.63
2022-10-05T10:02:28.564Z,6.03
2022-10-05T10:06:11.067Z,5.70
2022-10-05T10:09:35.176Z,5.83
2022-10-05T10:12:52.254Z,6.07
2022-10-05T10:16:19.881Z,6.20
2022-10-05T10:20:03.827Z,7.37
2022-10-05T10:23:18.251Z,8.17
2022-10-05T10:26:58.434Z,8.70
2022-10-05T10:30:41.758Z,6.67
2022-10-05T10:34:11.366Z,6.27
2022-10-05T10:37:57.777Z,5.77
2022-10-05T10:41:15.038Z,6.07
2022-10-05T10:44:58.562Z,7.93
2022-10-05T10:48:04.934Z,8.90
2022-10-05T10:51:18.281Z,5.77
2022-10-05T10:54:47.034Z,7.37
2022-10-05T10:58:16.057Z,7.13
2022-10-05T11:01:35.504Z,6.70
2022-10-05T11:05:04.218Z,7.37
2022-10-05T11:08:35.560Z,5.03
2022-10-05T11:12:12.001Z,6.83
2022-10-05T11:15:40.458Z,6.87
2022-10-05T11:19:20.437Z,6.40
2022-10-05T11:22:41.844Z,7.20
2022-10-05T11:26:05.556Z,8.73
2022-10-05T11:29:39.805Z,7.50
2022-10-05T11:33:11.252Z,6.90
2022-10-05T11:37:01.929Z,5.53
2022-10-05T11:40:45.923Z,4.97
2022-10-05T11:44:21.827Z,8.27
2022-10-05T11:47:29.212Z,4.90
2022-10-05T11:50:40.560Z,5.93
2022-10-05T11:53:51.286Z,4.10
2022-10-05T11:57:00.176Z,4.77
2022-10-05T12:00:12.976Z,5.20
2022-10-05T12:03:43.184Z,7.37
2022-10-05T12:07:00.813Z,3.63
2022-10-05T12:10:23.299Z,7.17
2022-10-05T12:13:38.094Z,4.27
2022-10-05T12:16:47.211Z,3.67
2022-10-05T12:19:55.641Z,3.20
2022-10-05T12:23:03.304Z,5.73
2022-10-05T12:26:12.671Z,3.30
2022-10-05T12:29:26.065Z,3.60
2022-10-05T12:32:35.713Z,3.13
2022-10-05T12:35:48.337Z,3.53
2022-10-05T12:38:55.301Z,3.93
2022-10-05T12:42:10.511Z,3.07
2022-10-05T12:45:27.413Z,5.20
2022-10-05T12:48:56.158Z,2.93
2022-10-05T12:52:00.716Z,4.53
2022-10-05T12:55:11.443Z,4.80
2022-10-05T12:58:27.439Z,3.53
2022-10-05T13:01:39.833Z,3.00
2022-10-05T13:04:50.795Z,4.77
2022-10-05T13:08:13.377Z,2.93
2022-10-05T13:11:22.143Z,6.63
2022-10-05T13:14:47.515Z,4.43
2022-10-05T13:17:58.891Z,3.50
2022-10-05T13:21:07.611Z,4.10
2022-10-05T13:24:17.319Z,3.40
2022-10-05T13:27:25.226Z,3.03
2022-10-05T13:30:30.196Z,2.80
2022-10-05T13:33:54.939Z,2.87
2022-10-05T13:37:07.444Z,2.97
2022-10-05T13:40:21.734Z,4.83
2022-10-05T13:43:39.115Z,5.10
2022-10-05T13:46:49.083Z,2.90
2022-10-05T13:49:58.037Z,3.37
2022-10-05T13:53:08.659Z,2.60
2022-10-05T13:56:21.400Z,4.17
2022-10-05T13:59:31.462Z,3.53
2022-10-05T14:02:41.034Z,3.20
2022-10-05T14:05:56.367Z,5.50
2022-10-05T14:09:00.182Z,3.70
2022-10-05T14:12:19.528Z,4.13
2022-10-05T14:15:23.910Z,2.93
2022-10-05T14:18:31.309Z,4.33
2022-10-05T14:21:49.473Z,4.10
2022-10-05T14:24:55.702Z,4.30
2022-10-05T14:28:02.893Z,3.97
2022-10-05T14:31:15.291Z,3.10
2022-10-05T14:34:33.335Z,2.97
2022-10-05T14:37:47.620Z,4.03
2022-10-05T14:41:16.044Z,3.27
2022-10-05T14:44:29.564Z,4.43
2022-10-05T14:47:34.217Z,2.50
2022-10-05T14:50:52.882Z,3.80
2022-10-05T14:53:59.610Z,4.00
2022-10-05T14:57:09.970Z,3.20
2022-10-05T15:00:16.415Z,4.10
2022-10-05T15:03:33.135Z,2.50
2022-10-05T15:06:40.498Z,2.67
2022-10-05T15:09:56.883Z,3.00
2022-10-05T15:13:11.460Z,3.53
2022-10-05T15:16:20.235Z,2.73
2022-10-05T15:19:27.098Z,4.07
2022-10-05T15:22:41.064Z,2.30
2022-10-05T15:25:52.787Z,4.17
2022-10-05T15:29:01.079Z,5.40
2022-10-05T15:32:14.512Z,3.07
2022-10-05T15:35:42.119Z,3.60
2022-10-05T15:39:00.529Z,3.07
2022-10-05T15:42:08.123Z,2.33
2022-10-05T15:45:20.276Z,3.17
2022-10-05T15:48:29.275Z,4.23
2022-10-05T15:51:45.090Z,4.60
2022-10-05T15:55:22.104Z,3.20
2022-10-05T15:58:35.611Z,2.20
2022-10-05T16:01:47.794Z,4.27
2022-10-05T16:05:04.930Z,4.80
2022-10-05T16:08:34.750Z,2.20
2022-10-05T16:11:59.940Z,4.70
2022-10-05T16:15:16.772Z,2.13
2022-10-05T16:18:41.760Z,3.27
2022-10-05T16:21:54.035Z,2.17
2022-10-05T16:25:08.520Z,2.57
2022-10-05T16:28:23.335Z,5.33
2022-10-05T16:31:34.511Z,2.80
2022-10-05T16:34:47.112Z,3.53
2022-10-05T16:38:00.536Z,3.57
2022-10-05T16:41:09.596Z,3.13
2022-10-05T16:44:22.818Z,2.63
2022-10-05T16:47:35.663Z,3.43
2022-10-05T16:50:50.862Z,2.70
2022-10-05T16:54:02.880Z,2.60
2022-10-05T16:57:12.000Z,4.83
2022-10-05T17:00:23.552Z,3.40
2022-10-05T17:03:40.673Z,3.70
2022-10-05T17:07:09.974Z,2.10
2022-10-05T17:10:37.165Z,2.50
2022-10-05T17:13:58.262Z,4.17
2022-10-05T17:17:23.539Z,5.80
2022-10-05T17:20:49.210Z,2.73
2022-10-05T17:23:55.512Z,4.17
2022-10-05T17:27:03.041Z,3.37
2022-10-05T17:30:23.813Z,3.90
2022-10-05T17:33:30.783Z,3.20
2022-10-05T17:36:43.646Z,3.07
2022-10-05T17:39:49.783Z,3.80
2022-10-05T17:43:01.274Z,3.40
2022-10-05T17:46:06.714Z,4.43
2022-10-05T17:49:42.055Z,4.93
2022-10-05T17:53:03.406Z,2.93
2022-10-05T17:56:06.894Z,3.07
2022-10-05T17:59:10.653Z,4.17
2022-10-05T18:02:22.276Z,2.67
2022-10-05T18:05:28.514Z,2.53
2022-10-05T18:08:38.344Z,3.20
2022-10-05T18:11:43.033Z,3.13
2022-10-05T18:14:56.581Z,2.70
2022-10-05T18:18:20.755Z,3.67
2022-10-05T18:21:35.364Z,2.30
2022-10-05T18:24:55.687Z,2.53
2022-10-05T18:28:19.358Z,3.03
2022-10-05T18:31:32.970Z,2.50
2022-10-05T18:34:40.165Z,3.23
2022-10-05T18:37:54.373Z,3.83
2022-10-05T18:41:03.488Z,2.03
2022-10-05T18:44:26.823Z,5.67
2022-10-05T18:47:38.331Z,2.40
2022-10-05T18:50:49.000Z,3.00
2022-10-05T18:54:09.230Z,2.93
2022-10-05T18:57:40.773Z,2.37
2022-10-05T19:01:10.787Z,3.13
2022-10-05T19:04:26.793Z,2.37
2022-10-05T19:07:43.742Z,2.17
2022-10-05T19:10:55.459Z,5.50
2022-10-05T19:14:08.254Z,2.10
2022-10-05T19:17:24.224Z,2.73
2022-10-05T19:20:34.005Z,3.30
2022-10-05T19:23:56.387Z,2.50
2022-10-05T19:27:09.062Z,3.50
2022-10-05T19:30:18.587Z,2.10
2022-10-05T19:33:33.555Z,2.60
2022-10-05T19:36:48.871Z,3.03
2022-10-05T19:39:58.881Z,4.17
2022-10-05T19:43:24.502Z,3.83
2022-10-05T19:46:42.539Z,2.20
2022-10-05T19:49:57.484Z,2.53
2022-10-05T19:53:12.195Z,4.57
2022-10-05T19:56:20.510Z,3.40
2022-10-05T19:59:28.053Z,2.30
2022-10-05T20:02:32.519Z,3.30
2022-10-05T20:05:35.599Z,2.33
2022-10-05T20:08:41.790Z,2.67
2022-10-05T20:11:50.725Z,3.17
2022-10-05T20:15:35.294Z,2.50
2022-10-05T20:18:57.721Z,2.73
2022-10-05T20:22:24.612Z,2.37
2022-10-05T20:25:32.226Z,7.30
2022-10-05T20:28:35.298Z,5.43
2022-10-05T20:31:39.647Z,3.53
2022-10-05T20:34:44.384Z,3.17
2022-10-05T20:37:47.344Z,3.23
2022-10-05T20:40:50.312Z,4.73
2022-10-05T20:43:55.763Z,3.20
2022-10-05T20:47:01.337Z,5.30
2022-10-05T20:50:05.473Z,5.37
2022-10-05T20:53:11.888Z,5.40
2022-10-05T20:56:15.205Z,3.60
2022-10-05T20:59:18.519Z,4.90
2022-10-05T21:02:22.842Z,3.07
2022-10-05T21:05:25.880Z,2.53
2022-10-05T21:08:29.319Z,5.23
2022-10-05T21:11:32.589Z,3.10
2022-10-05T21:14:36.605Z,3.00
2022-10-05T21:17:40.887Z,2.43
2022-10-05T21:20:50.504Z,2.80
2022-10-05T21:23:54.775Z,4.43
2022-10-05T21:26:57.997Z,3.10
2022-10-05T21:30:00.938Z,1.80
2022-10-05T21:33:05.301Z,4.37
2022-10-05T21:36:08.218Z,4.27
2022-10-05T21:39:11.169Z,3.70
2022-10-05T21:42:14.102Z,3.53
2022-10-05T21:45:17.171Z,1.90
2022-10-05T21:48:21.703Z,2.33
2022-10-05T21:51:26.733Z,2.97
2022-10-05T21:54:30.484Z,3.53
2022-10-05T21:57:35.591Z,3.30
2022-10-05T22:00:38.571Z,2.63
2022-10-05T22:03:43.104Z,3.87
2022-10-05T22:06:46.117Z,1.60
2022-10-05T22:09:49.276Z,2.23
2022-10-05T22:12:52.343Z,1.77
2022-10-05T22:15:56.512Z,2.83
2022-10-05T22:19:04.825Z,5.50
2022-10-05T22:22:11.770Z,4.10
2022-10-05T22:25:15.907Z,1.40
2022-10-05T22:28:18.958Z,1.50
2022-10-05T22:31:22.161Z,4.03
2022-10-05T22:34:26.524Z,3.03
2022-10-05T22:37:29.491Z,4.70
2022-10-05T22:40:32.449Z,3.63
2022-10-05T22:43:35.431Z,3.77
2022-10-05T22:46:38.621Z,2.13
2022-10-05T22:49:42.921Z,3.03
2022-10-05T22:52:45.839Z,3.30
2022-10-05T22:55:48.813Z,3.57
2022-10-05T22:58:51.903Z,3.13
2022-10-05T23:01:54.911Z,3.87
2022-10-05T23:04:59.354Z,2.77
2022-10-05T23:08:03.237Z,3.23
2022-10-05T23:11:07.022Z,3.90
2022-10-05T23:14:09.993Z,2.20
2022-10-05T23:17:13.015Z,2.87
2022-10-05T23:20:17.468Z,1.97
2022-10-05T23:23:20.544Z,3.23
2022-10-05T23:26:25.521Z,2.07
2022-10-05T23:29:28.700Z,1.13
2022-10-05T23:32:31.641Z,2.23
2022-10-05T23:35:35.970Z,1.53
2022-10-05T23:38:38.946Z,1.03
2022-10-05T23:41:43.957Z,1.70
2022-10-05T23:44:47.373Z,2.10
2022-10-05T23:47:50.310Z,1.50
2022-10-05T23:50:56.255Z,1.50
2022-10-05T23:53:59.215Z,0.83
2022-10-05T23:57:02.199Z,0.93
